createdAt,value
2019-05-11T00:01:52.491Z,21.07
2019-05-11T00:04:24.389Z,19.10
2019-05-11T00:06:57.080Z,18.85
2019-05-11T00:09:29.238Z,23.18
2019-05-11T00:12:00.907Z,24.72
2019-05-11T00:14:32.961Z,17.10
2019-05-11T00:17:04.507Z,20.55
2019-05-11T00:19:36.415Z,14.80
2019-05-11T00:22:08.126Z,16.10
2019-05-11T00:24:40.045Z,12.82
2019-05-11T00:27:11.844Z,6.12
2019-05-11T00:29:43.715Z,6.20
2019-05-11T00:32:15.713Z,9.45
2019-05-11T00:34:47.556Z,6.42
2019-05-11T00:37:19.497Z,8.40
2019-05-11T00:39:51.244Z,7.45
2019-05-11T00:42:23.244Z,9.83
2019-05-11T00:44:55.210Z,7.00
2019-05-11T00:47:27.063Z,8.10
2019-05-11T00:49:58.795Z,6.83
2019-05-11T00:52:30.960Z,7.97
2019-05-11T00:55:02.573Z,8.05
2019-05-11T00:57:34.518Z,8.58
2019-05-11T01:00:09.728Z,6.95
2019-05-11T01:02:41.324Z,9.50
2019-05-11T01:05:13.248Z,9.20
2019-05-11T01:07:45.294Z,10.80
2019-05-11T01:10:28.732Z,9.18
2019-05-11T01:12:50.915Z,10.28
2019-05-11T01:15:23.190Z,10.05
2019-05-11T01:17:55.495Z,8.35
2019-05-11T01:20:27.257Z,10.40
2019-05-11T01:22:59.612Z,11.15
2019-05-11T01:25:31.606Z,8.80
2019-05-11T01:28:03.653Z,10.90
2019-05-11T01:30:38.541Z,14.18
2019-05-11T01:33:08.877Z,13.98
2019-05-11T01:35:40.464Z,11.97
2019-05-11T01:38:12.428Z,11.25
2019-05-11T01:40:57.750Z,9.88
2019-05-11T01:43:17.375Z,9.78
2019-05-11T01:45:49.661Z,11.05
2019-05-11T01:48:21.280Z,14.25
2019-05-11T01:50:53.306Z,9.88
2019-05-11T01:53:25.057Z,9.33
2019-05-11T01:55:57.286Z,9.15
2019-05-11T01:58:28.955Z,11.73
2019-05-11T02:01:00.833Z,9.18
2019-05-11T02:03:32.669Z,15.28
2019-05-11T02:06:04.732Z,14.65
2019-05-11T02:08:36.437Z,12.23
2019-05-11T02:11:15.954Z,11.68
2019-05-11T02:13:42.058Z,13.03
2019-05-11T02:16:13.856Z,13.05
2019-05-11T02:18:45.603Z,17.65
2019-05-11T02:21:17.656Z,17.30
2019-05-11T02:23:49.317Z,16.40
2019-05-11T02:26:21.592Z,15.72
2019-05-11T02:28:53.415Z,18.82
2019-05-11T02:31:25.281Z,17.87
2019-05-11T02:33:58.172Z,20.70
2019-05-11T02:36:30.165Z,15.83
2019-05-11T02:39:02.157Z,22.20
2019-05-11T02:41:36.838Z,15.00
2019-05-11T02:44:07.419Z,17.10
2019-05-11T02:46:39.444Z,13.08
2019-05-11T02:49:11.080Z,15.55
2019-05-11T02:51:43.892Z,10.40
2019-05-11T02:54:15.809Z,9.68
2019-05-11T02:56:47.694Z,11.03
2019-05-11T02:59:19.546Z,11.40
2019-05-11T03:01:51.221Z,9.00
2019-05-11T03:04:22.950Z,7.42
2019-05-11T03:06:54.950Z,6.87
2019-05-11T03:09:26.698Z,12.78
2019-05-11T03:11:58.855Z,15.88
2019-05-11T03:14:30.594Z,30.10
2019-05-11T03:17:09.975Z,38.05
2019-05-11T03:19:41.554Z,31.52
2019-05-11T03:22:13.502Z,35.95
2019-05-11T03:24:45.614Z,37.67
2019-05-11T03:27:17.711Z,40.98
2019-05-11T03:29:49.468Z,37.08
2019-05-11T03:32:21.499Z,40.67
2019-05-11T03:34:53.097Z,29.52
2019-05-11T03:37:24.949Z,35.83
2019-05-11T03:39:56.881Z,47.17
2019-05-11T03:42:28.840Z,41.88
2019-05-11T03:45:00.491Z,51.45
2019-05-11T03:47:32.391Z,65.92
2019-05-11T03:52:35.291Z,64.90
2019-05-11T03:57:38.572Z,50.38
2019-05-11T04:00:11.253Z,47.80
2019-05-11T04:02:43.218Z,43.02
2019-05-11T04:05:14.858Z,42.23
2019-05-11T04:10:17.638Z,28.73
2019-05-11T04:12:49.859Z,23.27
2019-05-11T04:15:21.834Z,16.07
2019-05-11T04:17:53.969Z,14.35
2019-05-11T04:20:26.119Z,14.05
2019-05-11T04:22:58.426Z,15.72
2019-05-11T04:25:30.148Z,17.12
2019-05-11T04:28:01.928Z,14.83
2019-05-11T04:30:33.814Z,11.88
2019-05-11T04:33:05.527Z,13.18
2019-05-11T04:35:37.721Z,17.23
2019-05-11T04:38:09.646Z,9.13
2019-05-11T04:40:41.515Z,6.30
2019-05-11T04:43:12.902Z,8.23
2019-05-11T04:48:15.566Z,9.08
2019-05-11T04:50:47.422Z,9.28
2019-05-11T04:53:19.298Z,8.43
2019-05-11T04:58:21.873Z,9.18
2019-05-11T05:00:55.464Z,11.35
2019-05-11T05:03:40.326Z,10.28
2019-05-11T05:06:20.980Z,8.23
2019-05-11T05:08:34.681Z,7.67
2019-05-11T05:11:06.580Z,4.87
2019-05-11T05:13:38.173Z,7.50
2019-05-11T05:18:41.071Z,5.08
2019-05-11T05:21:13.362Z,5.00
2019-05-11T05:23:45.236Z,7.55
2019-05-11T05:26:16.953Z,5.30
2019-05-11T05:28:48.711Z,4.87
2019-05-11T05:31:20.264Z,5.12
2019-05-11T05:33:52.330Z,5.87
2019-05-11T05:36:23.793Z,7.58
2019-05-11T05:41:25.997Z,6.47
2019-05-11T05:46:28.786Z,6.22
2019-05-11T05:49:00.619Z,7.95
2019-05-11T05:51:32.685Z,8.50
2019-05-11T05:54:04.374Z,5.20
2019-05-11T05:56:35.987Z,5.87
2019-05-11T06:01:38.615Z,8.98
2019-05-11T06:04:10.776Z,6.83
2019-05-11T06:06:42.419Z,5.35
2019-05-11T06:09:14.302Z,5.50
2019-05-11T06:11:45.931Z,4.80
2019-05-11T06:14:17.527Z,5.90
2019-05-11T06:16:49.127Z,3.70
2019-05-11T06:21:52.167Z,6.75
2019-05-11T06:24:24.306Z,10.45
2019-05-11T06:29:26.744Z,8.23
2019-05-11T06:31:58.453Z,6.30
2019-05-11T06:34:30.241Z,4.97
2019-05-11T06:37:01.773Z,3.40
2019-05-11T06:39:33.619Z,3.08
2019-05-11T06:42:05.223Z,4.15
2019-05-11T06:44:36.887Z,7.80
2019-05-11T06:49:40.444Z,5.97
2019-05-11T06:52:12.109Z,6.03
2019-05-11T06:54:43.958Z,4.50
2019-05-11T06:59:46.458Z,14.58
2019-05-11T07:02:18.016Z,12.95
2019-05-11T07:07:20.637Z,16.93
2019-05-11T07:09:52.785Z,15.85
2019-05-11T07:12:27.515Z,14.87
2019-05-11T07:14:58.079Z,25.40
2019-05-11T07:17:29.790Z,45.88
2019-05-11T07:20:01.577Z,30.77
2019-05-11T07:22:34.035Z,30.75
2019-05-11T07:25:07.812Z,30.68
2019-05-11T07:27:39.687Z,25.00
2019-05-11T07:30:11.945Z,27.85
2019-05-11T07:32:44.971Z,31.77
2019-05-11T07:37:49.669Z,39.08
2019-05-11T07:40:22.436Z,37.50
2019-05-11T07:42:54.597Z,44.45
2019-05-11T07:45:28.338Z,38.13
2019-05-11T07:47:59.594Z,46.98
2019-05-11T07:50:31.513Z,32.33
2019-05-11T07:53:04.126Z,25.45
2019-05-11T07:55:38.565Z,22.67
2019-05-11T07:58:10.274Z,27.70
2019-05-11T08:03:13.233Z,34.48
2019-05-11T08:05:45.094Z,33.58
2019-05-11T08:08:18.089Z,36.28
2019-05-11T08:10:49.989Z,40.20
2019-05-11T08:13:21.882Z,35.00
2019-05-11T08:15:53.997Z,26.17
2019-05-11T08:20:58.245Z,22.52
2019-05-11T08:23:30.032Z,18.17
2019-05-11T08:26:02.157Z,17.82
2019-05-11T08:28:34.068Z,23.50
2019-05-11T08:31:08.091Z,29.05
2019-05-11T08:33:39.592Z,21.33
2019-05-11T08:36:11.606Z,27.15
2019-05-11T08:38:43.714Z,28.60
2019-05-11T08:41:15.394Z,14.05
2019-05-11T08:43:48.063Z,15.43
2019-05-11T08:46:19.865Z,17.45
2019-05-11T08:51:22.643Z,15.45
2019-05-11T08:53:55.374Z,16.42
2019-05-11T08:59:00.200Z,17.67
2019-05-11T09:01:32.263Z,9.03
2019-05-11T09:04:03.785Z,8.15
2019-05-11T09:06:37.624Z,9.23
2019-05-11T09:09:13.167Z,10.40
2019-05-11T09:11:43.494Z,13.18
2019-05-11T09:14:15.316Z,7.47
2019-05-11T09:16:48.863Z,7.25
2019-05-11T09:19:20.064Z,8.63
2019-05-11T09:21:51.871Z,10.00
2019-05-11T09:24:23.684Z,6.37
2019-05-11T09:26:55.388Z,10.23
2019-05-11T09:29:28.147Z,12.37
2019-05-11T09:32:00.269Z,7.17
2019-05-11T09:34:32.676Z,7.75
2019-05-11T09:37:04.850Z,6.00
2019-05-11T09:39:38.285Z,5.87
2019-05-11T09:42:10.747Z,7.67
2019-05-11T09:44:48.514Z,7.25
2019-05-11T09:47:20.273Z,8.88
2019-05-11T09:49:52.038Z,7.60
2019-05-11T09:52:23.585Z,8.48
2019-05-11T09:54:57.903Z,10.43
2019-05-11T09:57:28.923Z,11.93
2019-05-11T10:00:00.685Z,10.25
2019-05-11T10:02:34.278Z,10.68
2019-05-11T10:05:08.354Z,15.78
2019-05-11T10:07:40.296Z,24.57
2019-05-11T10:12:44.591Z,22.52
2019-05-11T10:15:18.751Z,20.05
2019-05-11T10:17:49.912Z,21.90
2019-05-11T10:20:23.069Z,16.93
2019-05-11T10:22:54.806Z,17.02
2019-05-11T10:25:28.725Z,17.57
2019-05-11T10:28:00.586Z,18.92
2019-05-11T10:30:32.431Z,12.43
2019-05-11T10:33:04.189Z,19.02
2019-05-11T10:35:37.819Z,10.15
2019-05-11T10:38:09.543Z,8.60
2019-05-11T10:40:41.538Z,6.80
2019-05-11T10:43:12.955Z,5.97
2019-05-11T10:45:44.774Z,5.72
2019-05-11T10:48:17.763Z,9.10
2019-05-11T10:50:49.578Z,14.40
2019-05-11T10:53:21.539Z,5.70
2019-05-11T10:55:53.541Z,6.25
2019-05-11T10:58:25.246Z,6.40
2019-05-11T11:00:58.217Z,3.90
2019-05-11T11:03:30.131Z,5.75
2019-05-11T11:06:01.865Z,8.80
2019-05-11T11:08:33.621Z,11.83
2019-05-11T11:11:08.130Z,6.87
2019-05-11T11:13:40.096Z,8.80
2019-05-11T11:16:12.057Z,9.60
2019-05-11T11:18:43.822Z,8.10
2019-05-11T11:21:21.772Z,8.08
2019-05-11T11:23:49.222Z,7.37
2019-05-11T11:26:20.873Z,6.20
2019-05-11T11:28:52.727Z,8.20
2019-05-11T11:31:24.999Z,6.70
2019-05-11T11:33:59.933Z,8.93
2019-05-11T11:36:31.563Z,9.68
2019-05-11T11:39:03.815Z,11.05
2019-05-11T11:41:37.751Z,12.37
2019-05-11T11:44:09.392Z,15.15
2019-05-11T11:49:13.712Z,20.32
2019-05-11T11:51:45.431Z,18.55
2019-05-11T11:54:18.173Z,18.35
2019-05-11T11:56:50.424Z,14.80
2019-05-11T11:59:22.088Z,18.77
2019-05-11T12:01:54.245Z,13.08
2019-05-11T12:04:28.263Z,12.03
2019-05-11T12:06:59.834Z,12.28
2019-05-11T12:09:31.978Z,25.48
2019-05-11T12:12:03.842Z,33.42
2019-05-11T12:14:38.334Z,24.45
2019-05-11T12:17:11.112Z,23.70
2019-05-11T12:19:43.062Z,21.93
2019-05-11T12:22:14.902Z,18.87
2019-05-11T12:24:48.194Z,15.05
2019-05-11T12:27:20.040Z,10.30
2019-05-11T12:29:51.761Z,15.00
2019-05-11T12:32:27.183Z,13.18
2019-05-11T12:34:58.977Z,9.20
2019-05-11T12:37:32.264Z,12.68
2019-05-11T12:40:05.239Z,7.65
2019-05-11T12:42:37.952Z,12.07
2019-05-11T12:45:10.177Z,10.60
2019-05-11T12:47:41.913Z,10.25
2019-05-11T12:50:13.714Z,12.60
2019-05-11T12:52:47.691Z,16.05
2019-05-11T12:55:19.297Z,13.03
2019-05-11T12:57:51.296Z,12.23
2019-05-11T13:00:23.160Z,11.40
2019-05-11T13:02:56.009Z,10.98
2019-05-11T13:05:28.839Z,16.12
2019-05-11T13:10:32.550Z,26.60
2019-05-11T13:13:04.566Z,29.12
2019-05-11T13:15:38.754Z,27.85
2019-05-11T13:18:10.953Z,26.00
2019-05-11T13:20:42.705Z,19.92
2019-05-11T13:23:14.629Z,20.97
2019-05-11T13:25:48.114Z,19.15
2019-05-11T13:28:20.046Z,17.23
2019-05-11T13:30:51.480Z,19.52
2019-05-11T13:33:23.743Z,16.82
2019-05-11T13:38:28.339Z,11.33
2019-05-11T13:41:00.341Z,9.95
2019-05-11T13:43:32.041Z,11.70
2019-05-11T13:46:03.859Z,11.83
2019-05-11T13:48:35.858Z,10.72
2019-05-11T13:51:08.847Z,9.58
2019-05-11T13:53:40.618Z,10.82
2019-05-11T13:56:12.285Z,8.95
2019-05-11T13:58:44.091Z,11.08
2019-05-11T14:01:18.187Z,10.30
2019-05-11T14:03:50.278Z,10.88
2019-05-11T14:06:22.219Z,11.22
2019-05-11T14:08:54.079Z,10.40
2019-05-11T14:11:28.504Z,10.10
2019-05-11T14:13:59.560Z,10.68
2019-05-11T14:16:31.824Z,10.95
2019-05-11T14:19:03.797Z,11.57
2019-05-11T14:21:37.793Z,10.55
2019-05-11T14:24:09.041Z,9.80
2019-05-11T14:26:40.794Z,10.70
2019-05-11T14:29:12.758Z,11.15
2019-05-11T14:31:44.560Z,11.45
2019-05-11T14:34:18.139Z,14.13
2019-05-11T14:36:50.532Z,11.45
2019-05-11T14:39:23.102Z,9.98
2019-05-11T14:41:54.961Z,11.85
2019-05-11T14:44:28.533Z,10.55
2019-05-11T14:47:02.650Z,12.80
2019-05-11T14:49:34.300Z,8.40
2019-05-11T14:52:08.336Z,6.97
2019-05-11T14:54:39.582Z,7.70
2019-05-11T14:57:11.550Z,11.60
2019-05-11T14:59:43.272Z,10.25
2019-05-11T15:02:33.280Z,7.60
2019-05-11T15:05:05.691Z,8.95
2019-05-11T15:07:38.528Z,9.88
2019-05-11T15:10:10.666Z,8.60
2019-05-11T15:12:43.689Z,8.08
2019-05-11T15:15:18.667Z,8.83
2019-05-11T15:17:50.364Z,13.32
2019-05-11T15:20:22.116Z,7.15
2019-05-11T15:22:53.867Z,9.00
2019-05-11T15:25:25.434Z,7.03
2019-05-11T15:27:58.408Z,9.53
2019-05-11T15:30:30.470Z,8.23
2019-05-11T15:33:02.185Z,10.78
2019-05-11T15:35:33.988Z,9.88
2019-05-11T15:38:08.543Z,10.03
2019-05-11T15:40:42.316Z,14.15
2019-05-11T15:43:14.127Z,14.93
2019-05-11T15:45:45.834Z,13.13
2019-05-11T15:48:18.663Z,12.05
2019-05-11T15:50:50.630Z,12.93
2019-05-11T15:53:22.572Z,10.95
2019-05-11T15:55:54.505Z,10.20
2019-05-11T15:58:29.043Z,13.25
2019-05-11T16:01:00.145Z,12.80
2019-05-11T16:03:32.953Z,12.65
2019-05-11T16:06:04.796Z,10.43
2019-05-11T16:08:37.650Z,8.68
2019-05-11T16:11:09.558Z,10.48
2019-05-11T16:13:41.105Z,13.13
2019-05-11T16:16:13.229Z,14.47
2019-05-11T16:18:44.826Z,10.93
2019-05-11T16:21:18.183Z,12.05
2019-05-11T16:23:49.887Z,10.25
2019-05-11T16:26:22.233Z,12.45
2019-05-11T16:28:53.916Z,11.33
2019-05-11T16:31:25.598Z,16.17
2019-05-11T16:33:58.945Z,11.45
2019-05-11T16:36:31.130Z,13.38
2019-05-11T16:39:04.713Z,13.60
2019-05-11T16:41:38.151Z,17.80
2019-05-11T16:44:10.107Z,20.77
2019-05-11T16:46:41.922Z,21.85
2019-05-11T16:49:24.035Z,21.23
2019-05-11T16:51:46.956Z,23.20
2019-05-11T16:54:18.785Z,19.85
2019-05-11T16:56:50.989Z,19.00
2019-05-11T16:59:22.989Z,18.60
2019-05-11T17:01:54.782Z,23.27
2019-05-11T17:04:29.224Z,22.82
2019-05-11T17:07:00.042Z,26.37
2019-05-11T17:09:31.995Z,25.62
2019-05-11T17:12:04.037Z,28.83
2019-05-11T17:14:37.226Z,21.20
2019-05-11T17:17:10.631Z,25.12
2019-05-11T17:19:46.221Z,30.62
2019-05-11T17:22:15.819Z,24.27
2019-05-11T17:24:48.438Z,28.75
2019-05-11T17:27:20.423Z,23.92
2019-05-11T17:29:52.600Z,26.27
2019-05-11T17:32:24.268Z,28.32
2019-05-11T17:34:58.117Z,26.85
2019-05-11T17:37:29.820Z,24.23
2019-05-11T17:40:02.023Z,26.00
2019-05-11T17:42:33.828Z,26.50
2019-05-11T17:45:08.812Z,25.40
2019-05-11T17:47:40.622Z,29.67
2019-05-11T17:50:12.535Z,32.67
2019-05-11T17:52:44.326Z,33.33
2019-05-11T17:55:18.301Z,31.10
2019-05-11T17:57:53.771Z,37.88
2019-05-11T18:00:23.816Z,32.73
2019-05-11T18:02:55.393Z,29.02
2019-05-11T18:05:27.558Z,34.43
2019-05-11T18:07:59.503Z,28.27
2019-05-11T18:10:31.623Z,34.48
2019-05-11T18:13:04.436Z,428.50
2019-05-11T18:15:38.036Z,35.98
2019-05-11T18:18:09.814Z,27.82
2019-05-11T18:20:41.980Z,33.30
2019-05-11T18:23:13.538Z,32.73
2019-05-11T18:25:47.941Z,29.07
2019-05-11T18:28:19.451Z,41.35
2019-05-11T18:30:51.411Z,40.15
2019-05-11T18:33:23.116Z,41.02
2019-05-11T18:35:54.935Z,39.13
2019-05-11T18:38:27.688Z,49.38
2019-05-11T18:41:00.060Z,50.60
2019-05-11T18:43:31.891Z,61.35
2019-05-11T18:46:03.915Z,63.73
2019-05-11T18:48:37.963Z,66.62
2019-05-11T18:51:09.193Z,56.23
2019-05-11T18:53:40.790Z,53.78
2019-05-11T18:56:12.622Z,51.40
2019-05-11T18:58:44.459Z,47.65
2019-05-11T19:01:17.862Z,45.88
2019-05-11T19:03:49.835Z,29.90
2019-05-11T19:06:21.779Z,29.65
2019-05-11T19:08:53.907Z,23.90
2019-05-11T19:11:28.715Z,24.82
2019-05-11T19:13:59.996Z,23.75
2019-05-11T19:16:31.867Z,22.60
2019-05-11T19:19:03.770Z,25.00
2019-05-11T19:21:36.043Z,23.18
2019-05-11T19:24:09.338Z,21.05
2019-05-11T19:26:41.343Z,21.23
2019-05-11T19:29:12.989Z,26.12
2019-05-11T19:31:44.914Z,19.20
2019-05-11T19:34:17.674Z,21.80
2019-05-11T19:36:50.113Z,25.40
2019-05-11T19:39:22.176Z,34.20
2019-05-11T19:41:54.131Z,30.92
2019-05-11T19:44:27.901Z,44.60
2019-05-11T19:46:59.499Z,45.45
2019-05-11T19:49:31.164Z,31.20
2019-05-11T19:52:03.022Z,25.92
2019-05-11T19:54:34.862Z,23.85
2019-05-11T19:57:08.376Z,21.45
2019-05-11T19:59:40.113Z,22.37
2019-05-11T20:02:12.067Z,22.75
2019-05-11T20:04:43.918Z,24.72
2019-05-11T20:07:18.341Z,24.40
2019-05-11T20:09:49.574Z,20.02
2019-05-11T20:12:21.746Z,27.77
2019-05-11T20:14:53.492Z,27.42
2019-05-11T20:17:25.386Z,24.37
2019-05-11T20:19:58.106Z,27.93
2019-05-11T20:22:30.647Z,26.02
2019-05-11T20:25:02.288Z,30.62
2019-05-11T20:27:34.268Z,30.70
2019-05-11T20:30:08.645Z,29.40
2019-05-11T20:32:40.741Z,33.85
2019-05-11T20:35:12.369Z,29.20
2019-05-11T20:37:44.235Z,35.05
2019-05-11T20:40:18.339Z,31.87
2019-05-11T20:42:49.806Z,25.25
2019-05-11T20:45:21.678Z,22.98
2019-05-11T20:47:53.674Z,31.37
2019-05-11T20:50:25.477Z,22.27
2019-05-11T20:52:58.323Z,28.15
2019-05-11T20:55:30.267Z,27.15
2019-05-11T20:58:02.230Z,28.70
2019-05-11T21:00:34.149Z,26.20
2019-05-11T21:03:08.007Z,30.82
2019-05-11T21:05:39.370Z,28.07
2019-05-11T21:08:11.315Z,27.27
2019-05-11T21:10:42.937Z,32.48
2019-05-11T21:13:14.940Z,30.77
2019-05-11T21:15:47.832Z,27.20
2019-05-11T21:18:19.831Z,28.23
2019-05-11T21:20:51.575Z,28.38
2019-05-11T21:23:23.873Z,26.27
2019-05-11T21:25:55.775Z,25.68
2019-05-11T21:28:30.341Z,26.55
2019-05-11T21:31:01.092Z,30.57
2019-05-11T21:33:33.275Z,43.25
2019-05-11T21:36:05.019Z,33.40
2019-05-11T21:38:38.629Z,33.83
2019-05-11T21:41:10.472Z,27.10
2019-05-11T21:43:42.543Z,29.27
2019-05-11T21:46:15.133Z,31.70
2019-05-11T21:48:47.872Z,27.15
2019-05-11T21:53:51.000Z,22.50
2019-05-11T21:56:22.963Z,26.45
2019-05-11T21:58:54.847Z,22.42
2019-05-11T22:01:28.135Z,25.10
2019-05-11T22:04:00.156Z,23.02
2019-05-11T22:06:32.142Z,25.23
2019-05-11T22:09:05.437Z,25.25
2019-05-11T22:11:38.068Z,26.23
2019-05-11T22:14:10.027Z,26.23
2019-05-11T22:16:41.941Z,23.25
2019-05-11T22:19:14.311Z,24.00
2019-05-11T22:21:49.437Z,19.75
2019-05-11T22:24:19.910Z,25.05
2019-05-11T22:29:22.824Z,25.82
2019-05-11T22:31:54.576Z,31.52
2019-05-11T22:34:28.420Z,31.52
2019-05-11T22:36:59.753Z,33.65
2019-05-11T22:39:31.851Z,32.53
2019-05-11T22:42:03.512Z,38.05
2019-05-11T22:44:36.551Z,44.00
2019-05-11T22:47:09.056Z,49.75
2019-05-11T22:49:40.996Z,44.13
2019-05-11T22:52:12.892Z,58.63
2019-05-11T22:54:44.864Z,69.67
2019-05-11T22:57:16.817Z,75.03
2019-05-11T22:59:48.580Z,79.90
2019-05-11T23:02:21.585Z,80.53
2019-05-11T23:04:53.218Z,90.32
2019-05-11T23:07:25.384Z,102.25
2019-05-11T23:10:00.463Z,106.75
2019-05-11T23:12:31.194Z,99.10
2019-05-11T23:15:08.076Z,112.00
2019-05-11T23:17:41.134Z,130.05
2019-05-11T23:20:12.988Z,129.85
2019-05-11T23:22:58.011Z,113.60
2019-05-11T23:25:23.770Z,115.35
2019-05-11T23:27:55.952Z,134.67
2019-05-11T23:30:28.162Z,138.68
2019-05-11T23:32:59.964Z,139.75
2019-05-11T23:35:31.618Z,148.07
2019-05-11T23:38:03.891Z,138.10
2019-05-11T23:40:37.869Z,145.28
2019-05-11T23:43:09.559Z,145.50
2019-05-11T23:45:41.314Z,145.07
2019-05-11T23:48:13.174Z,140.00
2019-05-11T23:50:44.936Z,142.22
2019-05-11T23:53:17.823Z,120.53
2019-05-11T23:55:49.804Z,167.85
2019-05-11T23:58:21.696Z,177.30
